MAU62 FIMP-EHAM
Flight info
| Callsign | MAU62 |
|---|---|
| Flight time | N/A |
| Altitude | 32000 |
| Route | OKMAR UT665 AMBOD UA665 TSARA/N0480F340 DCT DENLI/N0479F330 UN304 ALRUS/N0476F350 UN304 APKAK/N0474F340 UN304 EGMES/N0471F360 UN304 DWA DCT XADOX DCT SETIT UR780 ASM/N0468F350 G650 ULONI/N0467F370 G650 RASKA/N0466F360 DCT JDW DCT LXR/N0469F380 P751 MMA L613 TANSA UL613 YNN DCT VAKSU DCT NAKIT/N0456F400 DCT SOTOV P66 KPT DCT TEKTU Z850 ABILU DCT RKN |
| Aircraft | A343/H-SDE2E3FGHIJ4J5M1RWXY/LB1D1 |
Departure
| Time | 2026-04-30 20:26 |
|---|---|
| Airport | Sir Seewoosagur Ramgoolam International Airport (FIMP) |
Arrival
| Time | N/A |
|---|---|
| Airport | Amsterdam Airport Schiphol (EHAM) |
| Time | Latitude | Longitude | Altitude | Speed | Heading |
|---|---|---|---|---|---|
| 2026-04-30 20:08 | -20.43262 | 57.67954 | 190 ft | 0 kts | 237° |
| 2026-04-30 20:16 | -20.43261 | 57.67955 | 190 ft | 2 kts | 237° |
| 2026-04-30 20:16 | -20.43248 | 57.67977 | 206 ft | 4 kts | 237° |
| 2026-04-30 20:16 | -20.43233 | 57.68001 | 206 ft | 4 kts | 237° |
| 2026-04-30 20:17 | -20.43221 | 57.68022 | 206 ft | 4 kts | 254° |
| 2026-04-30 20:17 | -20.43222 | 57.68047 | 206 ft | 4 kts | 310° |
| 2026-04-30 20:17 | -20.43243 | 57.68064 | 206 ft | 4 kts | 333° |
| 2026-04-30 20:17 | -20.43263 | 57.68074 | 206 ft | 0 kts | 335° |
| 2026-04-30 20:19 | -20.43256 | 57.68071 | 206 ft | 4 kts | 334° |
| 2026-04-30 20:19 | -20.43216 | 57.68045 | 206 ft | 8 kts | 326° |
| 2026-04-30 20:20 | -20.43163 | 57.68000 | 205 ft | 12 kts | 318° |
| 2026-04-30 20:20 | -20.43106 | 57.67932 | 205 ft | 13 kts | 305° |
| 2026-04-30 20:20 | -20.43060 | 57.67845 | 194 ft | 14 kts | 297° |
| 2026-04-30 20:20 | -20.43015 | 57.67751 | 205 ft | 15 kts | 297° |
| 2026-04-30 20:21 | -20.42960 | 57.67659 | 205 ft | 15 kts | 319° |
| 2026-04-30 20:21 | -20.42869 | 57.67600 | 205 ft | 16 kts | 327° |
| 2026-04-30 20:21 | -20.42780 | 57.67529 | 201 ft | 16 kts | 322° |
| 2026-04-30 20:21 | -20.42686 | 57.67476 | 203 ft | 15 kts | 342° |
| 2026-04-30 20:22 | -20.42598 | 57.67439 | 210 ft | 14 kts | 328° |
| 2026-04-30 20:22 | -20.42547 | 57.67359 | 210 ft | 13 kts | 297° |
| 2026-04-30 20:22 | -20.42504 | 57.67275 | 214 ft | 12 kts | 298° |
| 2026-04-30 20:22 | -20.42469 | 57.67203 | 216 ft | 10 kts | 296° |
| 2026-04-30 20:23 | -20.42439 | 57.67131 | 216 ft | 10 kts | 288° |
| 2026-04-30 20:23 | -20.42435 | 57.67056 | 216 ft | 10 kts | 267° |
| 2026-04-30 20:23 | -20.42431 | 57.66983 | 217 ft | 10 kts | 283° |
| 2026-04-30 20:23 | -20.42395 | 57.66928 | 219 ft | 7 kts | 334° |
| 2026-04-30 20:24 | -20.42356 | 57.66942 | 218 ft | 7 kts | 53° |
| 2026-04-30 20:24 | -20.42365 | 57.66981 | 221 ft | 0 kts | 112° |
| 2026-04-30 20:25 | -20.42571 | 57.67413 | 202 ft | 83 kts | 117° |
| 2026-04-30 20:25 | -20.42912 | 57.68121 | 203 ft | 130 kts | 117° |
| 2026-04-30 20:26 | -20.43918 | 57.70240 | 661 ft | 169 kts | 120° |
| 2026-04-30 20:26 | -20.44809 | 57.72119 | 1565 ft | 179 kts | 119° |
| 2026-04-30 20:26 | -20.45221 | 57.73418 | 1724 ft | 193 kts | 104° |
| 2026-04-30 20:27 | -20.44453 | 57.76334 | 1823 ft | 241 kts | 42° |
| 2026-04-30 20:27 | -20.41041 | 57.76540 | 2263 ft | 274 kts | 327° |
| 2026-04-30 20:28 | -20.38212 | 57.73751 | 3023 ft | 280 kts | 316° |
| 2026-04-30 20:28 | -20.35226 | 57.71066 | 3960 ft | 282 kts | 321° |
| 2026-04-30 20:29 | -20.32071 | 57.68517 | 4812 ft | 285 kts | 323° |
| 2026-04-30 20:30 | -20.27250 | 57.64757 | 6094 ft | 288 kts | 323° |
| 2026-04-30 20:30 | -20.22423 | 57.61033 | 7386 ft | 288 kts | 323° |
| 2026-04-30 20:31 | -20.17496 | 57.57239 | 8558 ft | 293 kts | 323° |
| 2026-04-30 20:32 | -20.12389 | 57.53309 | 9540 ft | 308 kts | 323° |
| 2026-04-30 20:32 | -20.08887 | 57.50617 | 10226 ft | 314 kts | 323° |
| 2026-04-30 20:33 | -20.07088 | 57.49234 | 10382 ft | 324 kts | 323° |
| 2026-04-30 20:33 | -20.03332 | 57.46350 | 10676 ft | 342 kts | 322° |
| 2026-04-30 20:33 | -20.01371 | 57.44846 | 10804 ft | 351 kts | 322° |
| 2026-04-30 20:34 | -19.97312 | 57.41731 | 11048 ft | 368 kts | 323° |
| 2026-04-30 20:34 | -19.93087 | 57.38492 | 11342 ft | 379 kts | 323° |
| 2026-04-30 20:35 | -19.90936 | 57.36844 | 11543 ft | 384 kts | 322° |
| 2026-04-30 20:35 | -19.88766 | 57.35181 | 11772 ft | 386 kts | 323° |
| 2026-04-30 20:35 | -19.84391 | 57.31832 | 12289 ft | 390 kts | 323° |
| 2026-04-30 20:36 | -19.82190 | 57.30148 | 12520 ft | 392 kts | 322° |
| 2026-04-30 20:36 | -19.79972 | 57.28451 | 12780 ft | 393 kts | 323° |
| 2026-04-30 20:36 | -19.75513 | 57.25042 | 13275 ft | 396 kts | 322° |
| 2026-04-30 20:37 | -19.73266 | 57.23324 | 13493 ft | 399 kts | 323° |
| 2026-04-30 20:37 | -19.71003 | 57.21595 | 13587 ft | 404 kts | 323° |
| 2026-04-30 20:37 | -19.68719 | 57.19851 | 13850 ft | 405 kts | 323° |
| 2026-04-30 20:37 | -19.66433 | 57.18106 | 14093 ft | 405 kts | 323° |
| 2026-04-30 20:38 | -19.64137 | 57.16354 | 14262 ft | 407 kts | 323° |
| 2026-04-30 20:38 | -19.61835 | 57.14598 | 14456 ft | 409 kts | 323° |
| 2026-04-30 20:38 | -19.59522 | 57.12835 | 14670 ft | 410 kts | 323° |
| 2026-04-30 20:39 | -19.54880 | 57.09296 | 15069 ft | 412 kts | 323° |
| 2026-04-30 20:39 | -19.52547 | 57.07519 | 15266 ft | 414 kts | 323° |
| 2026-04-30 20:39 | -19.50237 | 57.05760 | 15488 ft | 415 kts | 323° |
| 2026-04-30 20:40 | -19.45501 | 57.02155 | 15875 ft | 418 kts | 322° |
| 2026-04-30 20:40 | -19.43133 | 57.00355 | 16086 ft | 420 kts | 322° |
| 2026-04-30 20:40 | -19.40757 | 56.98548 | 16269 ft | 421 kts | 322° |
| 2026-04-30 20:41 | -19.35970 | 56.94910 | 16578 ft | 426 kts | 322° |
| 2026-04-30 20:41 | -19.33553 | 56.93074 | 16786 ft | 427 kts | 322° |
| 2026-04-30 20:41 | -19.31136 | 56.91239 | 16979 ft | 429 kts | 322° |
| 2026-04-30 20:41 | -19.28740 | 56.89421 | 17159 ft | 431 kts | 322° |
| 2026-04-30 20:42 | -19.26300 | 56.87569 | 17348 ft | 432 kts | 322° |
| 2026-04-30 20:42 | -19.23853 | 56.85713 | 17541 ft | 433 kts | 322° |
| 2026-04-30 20:42 | -19.18928 | 56.81980 | 17877 ft | 438 kts | 322° |
| 2026-04-30 20:43 | -19.16447 | 56.80101 | 18059 ft | 439 kts | 322° |
| 2026-04-30 20:43 | -19.13960 | 56.78218 | 18247 ft | 441 kts | 322° |
| 2026-04-30 20:43 | -19.11465 | 56.76329 | 18423 ft | 442 kts | 322° |
| 2026-04-30 20:44 | -19.06449 | 56.72535 | 18788 ft | 444 kts | 322° |
| 2026-04-30 20:44 | -19.03934 | 56.70633 | 18881 ft | 447 kts | 322° |
| 2026-04-30 20:44 | -18.98820 | 56.66769 | 19253 ft | 449 kts | 322° |
| 2026-04-30 20:45 | -18.93767 | 56.62954 | 19635 ft | 450 kts | 322° |
| 2026-04-30 20:45 | -18.91217 | 56.61030 | 19813 ft | 451 kts | 322° |
| 2026-04-30 20:45 | -18.88666 | 56.59105 | 19998 ft | 452 kts | 322° |
| 2026-04-30 20:46 | -18.80978 | 56.53310 | 20556 ft | 453 kts | 322° |
| 2026-04-30 20:46 | -18.78407 | 56.51374 | 20738 ft | 454 kts | 323° |
| 2026-04-30 20:47 | -18.73256 | 56.47496 | 21111 ft | 455 kts | 323° |
| 2026-04-30 20:47 | -18.70673 | 56.45552 | 21291 ft | 456 kts | 323° |
| 2026-04-30 20:48 | -18.65494 | 56.41658 | 21650 ft | 458 kts | 323° |
| 2026-04-30 20:48 | -18.62900 | 56.39709 | 21835 ft | 458 kts | 323° |
| 2026-04-30 20:48 | -18.60302 | 56.37758 | 22030 ft | 459 kts | 323° |
| 2026-04-30 20:48 | -18.57704 | 56.35807 | 22222 ft | 459 kts | 323° |
| 2026-04-30 20:49 | -18.55102 | 56.33854 | 22403 ft | 460 kts | 323° |
| 2026-04-30 20:49 | -18.52490 | 56.31894 | 22586 ft | 461 kts | 323° |
| 2026-04-30 20:49 | -18.49884 | 56.29939 | 22778 ft | 461 kts | 323° |
| 2026-04-30 20:50 | -18.44634 | 56.26003 | 23057 ft | 465 kts | 323° |
| 2026-04-30 20:50 | -18.42001 | 56.24031 | 23239 ft | 465 kts | 324° |
| 2026-04-30 20:50 | -18.39366 | 56.22058 | 23475 ft | 465 kts | 324° |
| 2026-04-30 20:50 | -18.36726 | 56.20081 | 23605 ft | 466 kts | 324° |
| 2026-04-30 20:51 | -18.34072 | 56.18095 | 23670 ft | 470 kts | 324° |
| 2026-04-30 20:51 | -18.28755 | 56.14118 | 24079 ft | 468 kts | 324° |
| 2026-04-30 20:51 | -18.26092 | 56.12129 | 24169 ft | 470 kts | 324° |
| 2026-04-30 20:52 | -18.23416 | 56.10129 | 24252 ft | 473 kts | 324° |
| 2026-04-30 20:52 | -18.20738 | 56.08130 | 24435 ft | 473 kts | 324° |
| 2026-04-30 20:52 | -18.15328 | 56.04202 | 24754 ft | 474 kts | 326° |
| 2026-04-30 20:53 | -18.12573 | 56.02282 | 24821 ft | 477 kts | 326° |
| 2026-04-30 20:53 | -18.09806 | 56.00368 | 25008 ft | 476 kts | 326° |
| 2026-04-30 20:53 | -18.07039 | 55.98450 | 25211 ft | 476 kts | 326° |
| 2026-04-30 20:54 | -18.01505 | 55.94595 | 25429 ft | 480 kts | 325° |
| 2026-04-30 20:54 | -17.98730 | 55.92652 | 25619 ft | 479 kts | 326° |
| 2026-04-30 20:54 | -17.95999 | 55.90738 | 25820 ft | 479 kts | 325° |
| 2026-04-30 20:55 | -17.90427 | 55.86832 | 26034 ft | 483 kts | 325° |
| 2026-04-30 20:55 | -17.87637 | 55.84878 | 26223 ft | 482 kts | 325° |
| 2026-04-30 20:55 | -17.84850 | 55.82927 | 26403 ft | 483 kts | 325° |
| 2026-04-30 20:56 | -17.79235 | 55.78999 | 26663 ft | 486 kts | 325° |
| 2026-04-30 20:56 | -17.76420 | 55.77031 | 26829 ft | 486 kts | 325° |
| 2026-04-30 20:56 | -17.70778 | 55.73089 | 27075 ft | 489 kts | 325° |
| 2026-04-30 20:57 | -17.67939 | 55.71107 | 27184 ft | 491 kts | 325° |
| 2026-04-30 20:57 | -17.65095 | 55.69121 | 27408 ft | 490 kts | 325° |
| 2026-04-30 20:57 | -17.62253 | 55.67139 | 27523 ft | 492 kts | 325° |